createdAt,value
2022-09-20T00:01:46.548Z,12.63
2022-09-20T00:04:14.096Z,12.70
2022-09-20T00:06:41.594Z,12.71
2022-09-20T00:09:09.109Z,12.50
2022-09-20T00:11:37.737Z,12.55
2022-09-20T00:14:08.596Z,12.56
2022-09-20T00:16:41.170Z,12.35
2022-09-20T00:19:10.230Z,12.33
2022-09-20T00:21:37.837Z,12.31
2022-09-20T00:24:06.422Z,12.32
2022-09-20T00:26:34.191Z,12.28
2022-09-20T00:29:01.781Z,12.63
2022-09-20T00:31:29.320Z,12.39
2022-09-20T00:34:17.162Z,12.34
2022-09-20T00:36:45.509Z,12.33
2022-09-20T00:39:15.045Z,12.17
2022-09-20T00:41:42.730Z,12.44
2022-09-20T00:44:45.886Z,12.53
2022-09-20T00:47:18.482Z,12.45
2022-09-20T00:49:47.767Z,12.57
2022-09-20T00:52:16.864Z,12.73
2022-09-20T00:54:44.568Z,12.88
2022-09-20T00:57:12.117Z,12.86
2022-09-20T00:59:42.856Z,13.00
2022-09-20T01:02:16.868Z,12.97
2022-09-20T01:04:47.213Z,12.86
2022-09-20T01:07:22.137Z,12.54
2022-09-20T01:09:50.412Z,12.57
2022-09-20T01:12:21.381Z,12.69
2022-09-20T01:14:51.905Z,12.63
2022-09-20T01:17:23.363Z,12.39
2022-09-20T01:20:01.364Z,12.45
2022-09-20T01:22:42.529Z,12.35
2022-09-20T01:25:16.187Z,12.28
2022-09-20T01:27:48.190Z,12.53
2022-09-20T01:30:19.882Z,12.46
2022-09-20T01:33:01.340Z,12.23
2022-09-20T01:35:30.058Z,11.89
2022-09-20T01:38:21.781Z,11.89
2022-09-20T01:41:07.496Z,11.77
2022-09-20T01:43:41.875Z,11.84
2022-09-20T01:46:22.776Z,11.81
2022-09-20T01:48:52.780Z,11.78
2022-09-20T01:51:43.292Z,11.65
2022-09-20T01:54:31.385Z,11.92
2022-09-20T01:57:35.006Z,12.26
2022-09-20T02:00:13.999Z,12.08
2022-09-20T02:03:13.566Z,11.88
2022-09-20T02:06:08.698Z,12.12
2022-09-20T02:09:18.676Z,12.16
2022-09-20T02:11:56.503Z,12.06
2022-09-20T02:14:35.729Z,12.09
2022-09-20T02:17:14.704Z,12.09
2022-09-20T02:19:59.862Z,11.88
2022-09-20T02:22:41.163Z,11.91
2022-09-20T02:25:36.896Z,11.91
2022-09-20T02:28:21.429Z,11.94
2022-09-20T02:30:56.705Z,12.14
2022-09-20T02:33:35.725Z,12.10
2022-09-20T02:36:22.793Z,11.93
2022-09-20T02:39:00.222Z,12.11
2022-09-20T02:41:52.576Z,12.24
2022-09-20T02:44:30.304Z,12.23
2022-09-20T02:47:07.844Z,12.29
2022-09-20T02:49:48.917Z,12.17
2022-09-20T02:52:26.991Z,12.31
2022-09-20T02:55:04.361Z,12.33
2022-09-20T02:57:46.873Z,12.21
2022-09-20T03:00:20.623Z,12.35
2022-09-20T03:03:00.453Z,12.34
2022-09-20T03:05:38.195Z,12.42
2022-09-20T03:08:17.913Z,12.39
2022-09-20T03:10:53.958Z,12.29
2022-09-20T03:13:32.997Z,12.16
2022-09-20T03:16:12.284Z,12.17
2022-09-20T03:18:52.243Z,12.28
2022-09-20T03:21:35.884Z,12.31
2022-09-20T03:24:13.121Z,12.38
2022-09-20T03:26:51.965Z,12.48
2022-09-20T03:29:36.158Z,12.77
2022-09-20T03:32:16.296Z,12.63
2022-09-20T03:34:53.687Z,12.51
2022-09-20T03:37:43.292Z,12.53
2022-09-20T03:40:46.426Z,12.61
2022-09-20T03:43:25.635Z,12.67
2022-09-20T03:46:05.135Z,12.58
2022-09-20T03:48:57.049Z,12.47
2022-09-20T03:51:33.739Z,12.65
2022-09-20T03:54:35.685Z,12.51
2022-09-20T03:57:21.587Z,12.59
2022-09-20T04:00:04.589Z,12.55
2022-09-20T04:02:41.200Z,12.26
2022-09-20T04:05:13.379Z,12.14
2022-09-20T04:07:52.995Z,12.06
2022-09-20T04:10:34.746Z,12.32
2022-09-20T04:13:17.113Z,12.28
2022-09-20T04:15:52.607Z,12.41
2022-09-20T04:18:31.631Z,12.25
2022-09-20T04:21:05.506Z,12.39
2022-09-20T04:23:41.493Z,12.27
2022-09-20T04:26:10.720Z,12.54
2022-09-20T04:28:44.205Z,12.46
2022-09-20T04:31:22.182Z,12.52
2022-09-20T04:33:52.610Z,12.58
2022-09-20T04:36:35.760Z,12.67
2022-09-20T04:39:18.059Z,12.44
2022-09-20T04:42:27.950Z,12.47
2022-09-20T04:45:37.772Z,12.30
2022-09-20T04:48:45.206Z,12.04
2022-09-20T04:51:38.276Z,12.09
2022-09-20T04:54:38.760Z,12.02
2022-09-20T04:57:25.555Z,12.12
2022-09-20T05:00:04.967Z,12.02
2022-09-20T05:03:03.258Z,11.88
2022-09-20T05:06:03.030Z,11.83
2022-09-20T05:09:07.887Z,11.86
2022-09-20T05:11:57.939Z,11.91
2022-09-20T05:14:45.567Z,11.81
2022-09-20T05:17:25.353Z,11.89
2022-09-20T05:20:24.177Z,11.90
2022-09-20T05:23:13.908Z,12.16
2022-09-20T05:25:59.637Z,12.11
2022-09-20T05:28:35.476Z,12.16
2022-09-20T05:31:10.817Z,12.52
2022-09-20T05:33:48.251Z,12.50
2022-09-20T05:36:24.551Z,12.52
2022-09-20T05:39:03.485Z,12.63
2022-09-20T05:41:40.396Z,12.60
2022-09-20T05:44:20.935Z,12.69
2022-09-20T05:47:00.057Z,12.82
2022-09-20T05:49:48.074Z,12.87
2022-09-20T05:52:32.720Z,12.75
2022-09-20T05:55:43.214Z,13.03
2022-09-20T05:58:34.341Z,13.18
2022-09-20T06:01:08.178Z,13.28
2022-09-20T06:03:41.019Z,12.80
2022-09-20T06:06:15.441Z,12.60
2022-09-20T06:08:58.153Z,12.68
2022-09-20T06:11:47.116Z,12.57
2022-09-20T06:14:32.733Z,12.50
2022-09-20T06:17:03.658Z,12.51
2022-09-20T06:19:40.194Z,12.72
2022-09-20T06:22:19.178Z,12.81
2022-09-20T06:24:50.079Z,12.70
2022-09-20T06:27:22.040Z,12.48
2022-09-20T06:29:54.354Z,12.34
2022-09-20T06:32:21.948Z,12.74
2022-09-20T06:34:49.947Z,12.69
2022-09-20T06:37:51.040Z,12.70
2022-09-20T06:40:52.348Z,12.71
2022-09-20T06:43:19.875Z,12.73
2022-09-20T06:45:48.994Z,12.76
2022-09-20T06:48:16.693Z,12.68
2022-09-20T06:50:45.238Z,12.72
2022-09-20T06:53:18.124Z,12.53
2022-09-20T06:55:47.134Z,12.77
2022-09-20T06:58:15.240Z,12.73
2022-09-20T07:01:57.465Z,13.04
2022-09-20T07:04:26.574Z,12.77
2022-09-20T07:07:00.207Z,13.16
2022-09-20T07:09:27.988Z,13.61
2022-09-20T07:11:58.973Z,13.68
2022-09-20T07:14:27.262Z,13.53
2022-09-20T07:16:55.087Z,13.36
2022-09-20T07:19:23.235Z,13.47
2022-09-20T07:21:52.121Z,13.84
2022-09-20T07:24:19.980Z,13.88
2022-09-20T07:26:55.853Z,14.05
2022-09-20T07:29:23.420Z,13.89
2022-09-20T07:31:51.192Z,14.02
2022-09-20T07:34:20.302Z,14.08
2022-09-20T07:36:47.872Z,13.86
2022-09-20T07:39:17.892Z,13.96
2022-09-20T07:41:46.492Z,13.73
2022-09-20T07:44:24.795Z,13.77
2022-09-20T07:46:54.097Z,14.04
2022-09-20T07:49:22.497Z,14.17
2022-09-20T07:51:50.812Z,13.65
2022-09-20T07:54:19.799Z,13.74
2022-09-20T07:56:47.821Z,13.80
2022-09-20T07:59:16.192Z,13.46
2022-09-20T08:01:44.149Z,13.40
2022-09-20T08:04:12.175Z,13.60
2022-09-20T08:06:41.286Z,13.71
2022-09-20T08:09:11.286Z,14.00
2022-09-20T08:11:42.055Z,13.98
2022-09-20T08:14:14.184Z,14.18
2022-09-20T08:16:43.754Z,14.42
2022-09-20T08:19:17.227Z,14.28
2022-09-20T08:21:44.811Z,14.50
2022-09-20T08:24:12.882Z,14.74
2022-09-20T08:26:41.785Z,14.92
2022-09-20T08:29:09.396Z,14.95
2022-09-20T08:31:42.064Z,14.50
2022-09-20T08:34:11.227Z,14.32
2022-09-20T08:36:42.015Z,14.40
2022-09-20T08:42:10.062Z,14.55
2022-09-20T08:44:47.822Z,14.65
2022-09-20T08:47:20.194Z,15.05
2022-09-20T08:49:48.140Z,15.24
2022-09-20T08:52:19.014Z,15.47
2022-09-20T08:54:47.399Z,15.39
2022-09-20T08:57:19.329Z,15.36
2022-09-20T08:59:47.334Z,15.32
2022-09-20T09:02:17.699Z,15.34
2022-09-20T09:04:48.272Z,15.28
2022-09-20T09:07:19.696Z,15.29
2022-09-20T09:09:47.781Z,15.40
2022-09-20T09:12:22.098Z,15.41
2022-09-20T09:14:55.806Z,15.57
2022-09-20T09:17:28.431Z,15.57
2022-09-20T09:19:57.458Z,15.60
2022-09-20T09:22:32.712Z,15.73
2022-09-20T09:25:20.176Z,15.60
2022-09-20T09:27:57.228Z,15.73
2022-09-20T09:30:28.785Z,15.69
2022-09-20T09:33:25.130Z,15.76
2022-09-20T09:35:55.633Z,15.63
2022-09-20T09:38:25.263Z,15.73
2022-09-20T09:40:54.790Z,15.78
2022-09-20T09:43:27.186Z,16.05
2022-09-20T09:45:55.197Z,15.93
2022-09-20T09:48:26.838Z,16.07
2022-09-20T09:51:10.625Z,16.19
2022-09-20T09:53:39.153Z,16.46
2022-09-20T09:56:22.042Z,16.47
2022-09-20T09:59:22.893Z,16.47
2022-09-20T10:02:00.234Z,16.35
2022-09-20T10:04:36.744Z,16.29
2022-09-20T10:07:10.476Z,16.34
2022-09-20T10:09:55.695Z,16.35
2022-09-20T10:12:38.307Z,16.39
2022-09-20T10:15:22.941Z,16.35
2022-09-20T10:18:05.523Z,16.32
2022-09-20T10:20:45.997Z,16.26
2022-09-20T10:24:03.244Z,16.26
2022-09-20T10:26:39.811Z,16.20
2022-09-20T10:29:21.746Z,16.14
2022-09-20T10:31:58.425Z,15.95
2022-09-20T10:35:09.223Z,16.05
2022-09-20T10:37:49.444Z,16.16
2022-09-20T10:40:48.177Z,16.05
2022-09-20T10:43:23.685Z,16.19
2022-09-20T10:46:27.929Z,16.13
2022-09-20T10:48:59.831Z,16.31
2022-09-20T10:51:35.221Z,16.14
2022-09-20T10:54:11.120Z,16.06
2022-09-20T10:56:44.913Z,15.99
2022-09-20T10:59:32.459Z,16.13
2022-09-20T11:02:15.135Z,16.07
2022-09-20T11:05:09.211Z,16.31
2022-09-20T11:07:52.457Z,16.40
2022-09-20T11:10:24.206Z,16.51
2022-09-20T11:12:57.094Z,16.50
2022-09-20T11:15:28.939Z,16.53
2022-09-20T11:18:05.378Z,16.68
2022-09-20T11:20:44.044Z,16.81
2022-09-20T11:23:17.437Z,16.69
2022-09-20T11:25:51.625Z,16.76
2022-09-20T11:28:25.740Z,16.80
2022-09-20T11:31:00.981Z,17.05
2022-09-20T11:33:32.545Z,17.16
2022-09-20T11:36:04.136Z,17.25
2022-09-20T11:38:38.210Z,17.39
2022-09-20T11:41:14.360Z,17.44
2022-09-20T11:43:44.312Z,17.48
2022-09-20T11:46:14.907Z,17.56
2022-09-20T11:48:48.902Z,17.64
2022-09-20T11:51:35.717Z,17.68
2022-09-20T11:54:28.141Z,17.64
2022-09-20T11:56:57.995Z,17.55
2022-09-20T11:59:33.300Z,17.62
2022-09-20T12:02:04.213Z,17.39
2022-09-20T12:04:36.229Z,17.61
2022-09-20T12:07:11.538Z,17.54
2022-09-20T12:09:44.993Z,17.61
2022-09-20T12:12:20.086Z,17.66
2022-09-20T12:14:54.353Z,17.52
2022-09-20T12:17:59.239Z,17.55
2022-09-20T12:21:06.009Z,17.61
2022-09-20T12:24:17.465Z,17.56
2022-09-20T12:26:46.894Z,17.62
2022-09-20T12:29:55.267Z,17.66
2022-09-20T12:32:54.985Z,17.58
2022-09-20T12:35:55.822Z,17.38
2022-09-20T12:38:39.274Z,17.37
2022-09-20T12:41:14.317Z,17.39
2022-09-20T12:43:53.827Z,17.23
2022-09-20T12:46:30.695Z,17.04
2022-09-20T12:49:37.177Z,17.15
2022-09-20T12:52:22.699Z,17.14
2022-09-20T12:54:56.376Z,17.17
2022-09-20T12:57:33.108Z,17.31
2022-09-20T13:00:03.201Z,17.17
2022-09-20T13:03:00.195Z,17.35
2022-09-20T13:05:38.002Z,17.50
2022-09-20T13:08:16.984Z,17.85
2022-09-20T13:10:49.922Z,17.86
2022-09-20T13:13:31.513Z,17.89
2022-09-20T13:16:01.159Z,17.63
2022-09-20T13:18:30.329Z,17.60
2022-09-20T13:21:00.247Z,17.93
2022-09-20T13:23:34.031Z,18.14
2022-09-20T13:26:03.870Z,18.27
2022-09-20T13:28:38.476Z,18.46
2022-09-20T13:31:35.521Z,18.50
2022-09-20T13:34:23.786Z,18.73
2022-09-20T13:36:56.498Z,18.49
2022-09-20T13:39:29.142Z,18.26
2022-09-20T13:42:02.311Z,18.14
2022-09-20T13:44:34.288Z,18.14
2022-09-20T13:47:02.483Z,18.12
2022-09-20T13:49:33.006Z,18.11
2022-09-20T13:52:12.459Z,17.93
2022-09-20T13:54:39.957Z,17.93
2022-09-20T13:57:19.846Z,17.81
2022-09-20T13:59:49.524Z,17.78
2022-09-20T14:02:23.536Z,17.74
2022-09-20T14:04:54.455Z,17.70
2022-09-20T14:07:25.717Z,17.58
2022-09-20T14:09:54.030Z,17.60
2022-09-20T14:12:23.655Z,17.60
2022-09-20T14:14:53.676Z,17.49
2022-09-20T14:17:24.480Z,17.33
2022-09-20T14:19:54.639Z,17.41
2022-09-20T14:22:25.231Z,17.32
2022-09-20T14:25:01.572Z,17.39
2022-09-20T14:27:31.109Z,17.33
2022-09-20T14:30:00.080Z,17.22
2022-09-20T14:32:44.760Z,17.17
2022-09-20T14:35:18.294Z,17.08
2022-09-20T14:37:49.204Z,17.28
2022-09-20T14:40:25.267Z,17.19
2022-09-20T14:43:04.175Z,17.19
2022-09-20T14:45:35.112Z,17.23
2022-09-20T14:48:10.290Z,17.30
2022-09-20T14:50:40.496Z,17.42
2022-09-20T14:53:24.843Z,17.47
2022-09-20T14:56:10.204Z,17.39
2022-09-20T14:59:03.782Z,17.49
2022-09-20T15:01:33.692Z,17.45
2022-09-20T15:04:08.183Z,17.47
2022-09-20T15:06:36.891Z,17.53
2022-09-20T15:09:04.666Z,17.44
2022-09-20T15:11:32.665Z,17.39
2022-09-20T15:14:00.153Z,17.36
2022-09-20T15:16:29.506Z,17.35
2022-09-20T15:18:58.415Z,17.27
2022-09-20T15:21:26.007Z,17.29
2022-09-20T15:23:53.902Z,17.20
2022-09-20T15:26:22.227Z,17.03
2022-09-20T15:28:50.284Z,17.21
2022-09-20T15:31:19.826Z,17.24
2022-09-20T15:33:47.361Z,17.10
2022-09-20T15:36:16.207Z,17.15
2022-09-20T15:38:43.713Z,17.06
2022-09-20T15:41:11.402Z,17.25
2022-09-20T15:43:43.108Z,17.52
2022-09-20T15:46:19.556Z,17.51
2022-09-20T15:48:47.504Z,17.58
2022-09-20T15:51:16.620Z,17.51
2022-09-20T15:53:45.605Z,17.53
2022-09-20T15:56:19.282Z,17.56
2022-09-20T15:58:48.238Z,17.63
2022-09-20T16:01:16.701Z,17.59
2022-09-20T16:03:46.040Z,17.54
2022-09-20T16:06:14.739Z,17.49
2022-09-20T16:08:44.205Z,17.49
2022-09-20T16:11:20.449Z,17.39
2022-09-20T16:13:54.517Z,17.15
2022-09-20T16:16:22.657Z,17.03
2022-09-20T16:19:07.785Z,17.21
2022-09-20T16:21:36.209Z,17.11
2022-09-20T16:24:05.969Z,17.14
2022-09-20T16:26:34.396Z,17.00
2022-09-20T16:29:04.470Z,17.03
2022-09-20T16:31:36.474Z,16.87
2022-09-20T16:34:05.758Z,16.83
2022-09-20T16:36:34.013Z,16.73
2022-09-20T16:39:01.509Z,16.52
2022-09-20T16:41:31.925Z,16.42
2022-09-20T16:43:59.410Z,16.31
2022-09-20T16:46:27.497Z,16.37
2022-09-20T16:48:56.624Z,16.18
2022-09-20T16:51:26.036Z,16.06
2022-09-20T16:53:55.884Z,16.04
2022-09-20T16:56:25.100Z,15.96
2022-09-20T16:58:55.100Z,15.96
2022-09-20T17:01:23.093Z,15.95
2022-09-20T17:03:51.358Z,15.95
2022-09-20T17:06:19.177Z,15.93
2022-09-20T17:08:48.584Z,15.96
2022-09-20T17:11:17.760Z,15.98
2022-09-20T17:13:47.125Z,15.80
2022-09-20T17:16:18.400Z,15.82
2022-09-20T17:18:46.117Z,15.93
2022-09-20T17:21:15.248Z,15.58
2022-09-20T17:23:47.561Z,15.52
2022-09-20T17:26:23.080Z,15.60
2022-09-20T17:28:53.251Z,15.69
2022-09-20T17:31:24.081Z,15.50
2022-09-20T17:33:52.616Z,15.45
2022-09-20T17:36:21.302Z,15.32
2022-09-20T17:38:53.711Z,15.07
2022-09-20T17:41:22.233Z,14.87
2022-09-20T17:43:54.619Z,14.91
2022-09-20T17:46:25.584Z,14.88
2022-09-20T17:48:55.576Z,14.74
2022-09-20T17:51:25.875Z,14.76
2022-09-20T17:53:55.634Z,14.64
2022-09-20T17:56:28.296Z,14.79
2022-09-20T17:58:56.602Z,14.86
2022-09-20T18:01:27.293Z,14.87
2022-09-20T18:03:57.145Z,14.87
2022-09-20T18:06:26.558Z,14.69
2022-09-20T18:08:55.850Z,14.74
2022-09-20T18:11:27.513Z,14.70
2022-09-20T18:13:55.277Z,14.48
2022-09-20T18:16:23.845Z,14.31
2022-09-20T18:18:52.811Z,14.40
2022-09-20T18:21:21.894Z,14.30
2022-09-20T18:23:50.429Z,14.36
2022-09-20T18:26:25.515Z,14.27
2022-09-20T18:28:58.083Z,14.34
2022-09-20T18:31:28.236Z,14.40
2022-09-20T18:33:59.665Z,14.14
2022-09-20T18:36:27.784Z,14.22
2022-09-20T18:38:56.486Z,14.23
2022-09-20T18:41:25.832Z,14.02
2022-09-20T18:43:54.884Z,14.04
2022-09-20T18:46:24.686Z,13.74
2022-09-20T18:48:53.593Z,13.80
2022-09-20T18:51:24.245Z,13.86
2022-09-20T18:53:52.706Z,13.78
2022-09-20T18:56:25.738Z,13.72
2022-09-20T18:58:54.705Z,13.65
2022-09-20T19:01:55.812Z,13.62
2022-09-20T19:04:35.435Z,13.68
2022-09-20T19:07:13.792Z,13.64
2022-09-20T19:09:47.100Z,13.62
2022-09-20T19:12:21.687Z,13.59
2022-09-20T19:15:09.752Z,13.66
2022-09-20T19:17:52.969Z,13.57
2022-09-20T19:20:29.242Z,13.55
2022-09-20T19:23:07.944Z,13.56
2022-09-20T19:25:43.949Z,13.68
2022-09-20T19:28:13.381Z,13.71
2022-09-20T19:30:42.343Z,13.66
2022-09-20T19:33:17.533Z,13.78
2022-09-20T19:35:49.454Z,13.83
2022-09-20T19:38:34.258Z,13.88
2022-09-20T19:41:14.193Z,13.84
2022-09-20T19:44:04.293Z,13.93
2022-09-20T19:46:45.967Z,13.92
2022-09-20T19:49:16.230Z,13.80
2022-09-20T19:51:45.433Z,13.70
2022-09-20T19:54:15.874Z,13.62
2022-09-20T19:56:52.762Z,13.44
2022-09-20T19:59:21.413Z,13.47
2022-09-20T20:01:49.744Z,13.50
2022-09-20T20:04:17.824Z,13.56
2022-09-20T20:06:54.491Z,13.46
2022-09-20T20:09:31.337Z,13.52
2022-09-20T20:12:07.768Z,13.57
2022-09-20T20:14:45.523Z,13.41
2022-09-20T20:17:31.991Z,13.36
2022-09-20T20:20:18.686Z,13.32
2022-09-20T20:23:27.862Z,13.24
2022-09-20T20:26:03.010Z,13.07
2022-09-20T20:28:30.886Z,13.10
2022-09-20T20:31:00.702Z,12.90
2022-09-20T20:33:28.373Z,12.82
2022-09-20T20:35:56.962Z,12.76
2022-09-20T20:38:26.182Z,12.77
2022-09-20T20:41:04.486Z,12.76
2022-09-20T20:43:32.268Z,12.72
2022-09-20T20:45:59.842Z,12.68
2022-09-20T20:48:27.388Z,12.70
2022-09-20T20:51:02.559Z,12.76
2022-09-20T20:53:34.122Z,12.64
2022-09-20T20:56:07.123Z,12.72
2022-09-20T20:58:36.251Z,12.80
2022-09-20T21:01:09.099Z,12.83
2022-09-20T21:03:36.898Z,12.79
2022-09-20T21:06:05.387Z,12.72
2022-09-20T21:08:34.187Z,12.66
2022-09-20T21:11:05.110Z,12.63
2022-09-20T21:13:33.035Z,12.66
2022-09-20T21:16:05.658Z,12.67
2022-09-20T21:18:33.660Z,12.60
2022-09-20T21:21:02.447Z,12.61
2022-09-20T21:23:30.301Z,12.68
2022-09-20T21:26:02.772Z,12.71
2022-09-20T21:28:31.626Z,12.64
2022-09-20T21:31:02.866Z,12.71
2022-09-20T21:33:33.701Z,12.89
2022-09-20T21:36:02.443Z,12.90
2022-09-20T21:38:33.173Z,12.95
2022-09-20T21:41:05.886Z,12.94
2022-09-20T21:43:35.078Z,12.88
2022-09-20T21:46:02.993Z,12.83
2022-09-20T21:48:30.905Z,12.78
2022-09-20T21:51:03.448Z,12.66
2022-09-20T21:53:30.944Z,12.60
2022-09-20T21:55:59.287Z,12.50
2022-09-20T21:58:27.380Z,12.50
2022-09-20T22:01:05.659Z,12.60
2022-09-20T22:03:34.983Z,12.46
2022-09-20T22:06:11.056Z,12.37
2022-09-20T22:08:40.173Z,12.40
2022-09-20T22:11:12.193Z,12.22
2022-09-20T22:13:42.361Z,12.23
2022-09-20T22:16:13.374Z,12.31
2022-09-20T22:18:42.822Z,12.27
2022-09-20T22:21:12.176Z,12.33
2022-09-20T22:23:39.824Z,12.23
2022-09-20T22:26:10.283Z,12.24
2022-09-20T22:28:38.503Z,12.22
2022-09-20T22:31:08.147Z,12.27
2022-09-20T22:33:40.791Z,12.19
2022-09-20T22:36:09.368Z,12.17
2022-09-20T22:38:37.102Z,12.15
2022-09-20T22:41:04.818Z,12.12
2022-09-20T22:43:33.057Z,11.99
2022-09-20T22:46:04.418Z,11.92
2022-09-20T22:48:32.675Z,11.93
2022-09-20T22:51:02.612Z,12.03
2022-09-20T22:53:31.397Z,12.02
2022-09-20T22:56:06.694Z,12.11
2022-09-20T22:58:35.219Z,12.03
2022-09-20T23:01:07.676Z,12.04
2022-09-20T23:03:35.892Z,11.95
2022-09-20T23:06:05.262Z,11.89
2022-09-20T23:08:33.595Z,11.80
2022-09-20T23:11:02.586Z,11.76
2022-09-20T23:13:30.246Z,11.74
2022-09-20T23:15:57.791Z,11.96
2022-09-20T23:18:25.596Z,12.17
2022-09-20T23:21:02.727Z,12.07
2022-09-20T23:23:32.687Z,12.22
2022-09-20T23:26:07.332Z,12.07
2022-09-20T23:28:35.189Z,12.00
2022-09-20T23:31:04.705Z,12.00
2022-09-20T23:33:32.886Z,11.90
2022-09-20T23:36:00.714Z,11.98
2022-09-20T23:38:28.294Z,11.89
2022-09-20T23:40:57.519Z,11.82
2022-09-20T23:43:25.038Z,11.85
2022-09-20T23:45:52.958Z,11.65
2022-09-20T23:48:20.517Z,11.71
2022-09-20T23:50:48.031Z,11.72
2022-09-20T23:53:15.583Z,11.80
2022-09-20T23:55:43.622Z,11.65
2022-09-20T23:58:12.562Z,11.64
